sensor_id;sensor_type;location;lat;lon;timestamp;pressure;altitude;pressure_sealevel;temperature;humidity
76011;BME280;64701;43.536;1.478;2023-07-13T00:00:06;99838.75;;;22.69;76.30
76011;BME280;64701;43.536;1.478;2023-07-13T00:02:35;99837.94;;;22.68;76.38
76011;BME280;64701;43.536;1.478;2023-07-13T00:05:00;99839.28;;;22.66;77.36
76011;BME280;64701;43.536;1.478;2023-07-13T00:07:25;99839.81;;;22.63;77.39
76011;BME280;64701;43.536;1.478;2023-07-13T00:09:51;99843.28;;;22.58;77.59
76011;BME280;64701;43.536;1.478;2023-07-13T00:12:27;99837.09;;;22.58;76.85
76011;BME280;64701;43.536;1.478;2023-07-13T00:14:54;99844.34;;;22.52;77.70
76011;BME280;64701;43.536;1.478;2023-07-13T00:17:20;99839.22;;;22.51;77.17
76011;BME280;64701;43.536;1.478;2023-07-13T00:19:45;99841.59;;;22.47;77.85
76011;BME280;64701;43.536;1.478;2023-07-13T00:22:10;99841.03;;;22.40;79.01
76011;BME280;64701;43.536;1.478;2023-07-13T00:24:36;99847.16;;;22.25;80.62
76011;BME280;64701;43.536;1.478;2023-07-13T00:27:07;99842.84;;;22.29;78.32
76011;BME280;64701;43.536;1.478;2023-07-13T00:29:33;99829.34;;;22.29;78.73
76011;BME280;64701;43.536;1.478;2023-07-13T00:31:58;99835.31;;;22.31;77.93
76011;BME280;64701;43.536;1.478;2023-07-13T00:34:24;99836.91;;;22.27;78.81
76011;BME280;64701;43.536;1.478;2023-07-13T00:36:49;99837.97;;;22.26;79.18
76011;BME280;64701;43.536;1.478;2023-07-13T00:39:14;99837.16;;;22.26;78.94
76011;BME280;64701;43.536;1.478;2023-07-13T00:41:40;99842.31;;;22.27;78.49
76011;BME280;64701;43.536;1.478;2023-07-13T00:44:08;99841.75;;;22.25;79.38
76011;BME280;64701;43.536;1.478;2023-07-13T00:46:34;99840.69;;;22.26;78.20
76011;BME280;64701;43.536;1.478;2023-07-13T00:49:01;99838.81;;;22.27;78.03
76011;BME280;64701;43.536;1.478;2023-07-13T00:51:30;99835.84;;;22.28;78.31
76011;BME280;64701;43.536;1.478;2023-07-13T00:53:57;99833.66;;;22.25;79.52
76011;BME280;64701;43.536;1.478;2023-07-13T00:56:24;99831.78;;;22.26;79.14
76011;BME280;64701;43.536;1.478;2023-07-13T00:58:50;99831.53;;;22.27;78.52
76011;BME280;64701;43.536;1.478;2023-07-13T01:01:15;99832.34;;;22.28;78.89
76011;BME280;64701;43.536;1.478;2023-07-13T01:03:40;99834.75;;;22.29;78.41
76011;BME280;64701;43.536;1.478;2023-07-13T01:06:06;99837.44;;;22.29;78.59
76011;BME280;64701;43.536;1.478;2023-07-13T01:08:32;99843.13;;;22.28;79.35
76011;BME280;64701;43.536;1.478;2023-07-13T01:10:58;99836.09;;;22.27;78.75
76011;BME280;64701;43.536;1.478;2023-07-13T01:13:23;99838.53;;;22.28;78.83
76011;BME280;64701;43.536;1.478;2023-07-13T01:15:49;99842.31;;;22.27;78.92
76011;BME280;64701;43.536;1.478;2023-07-13T01:18:21;99835.56;;;22.30;78.36
76011;BME280;64701;43.536;1.478;2023-07-13T01:20:51;99846.63;;;22.28;79.64
76011;BME280;64701;43.536;1.478;2023-07-13T01:23:17;99836.91;;;22.27;78.79
76011;BME280;64701;43.536;1.478;2023-07-13T01:25:44;99836.09;;;22.27;78.38
76011;BME280;64701;43.536;1.478;2023-07-13T01:28:09;99843.94;;;22.28;78.88
76011;BME280;64701;43.536;1.478;2023-07-13T01:30:38;99849.34;;;22.28;79.00
76011;BME280;64701;43.536;1.478;2023-07-13T01:33:05;99852.56;;;22.30;78.11
76011;BME280;64701;43.536;1.478;2023-07-13T01:35:30;99855.00;;;22.32;78.32
76011;BME280;64701;43.536;1.478;2023-07-13T01:37:55;99852.06;;;22.33;77.95
76011;BME280;64701;43.536;1.478;2023-07-13T01:40:22;99850.97;;;22.34;78.05
76011;BME280;64701;43.536;1.478;2023-07-13T01:42:47;99848.28;;;22.34;77.75
76011;BME280;64701;43.536;1.478;2023-07-13T01:45:12;99849.91;;;22.35;77.02
76011;BME280;64701;43.536;1.478;2023-07-13T01:47:38;99852.88;;;22.34;77.35
76011;BME280;64701;43.536;1.478;2023-07-13T01:50:03;99851.25;;;22.33;76.56
76011;BME280;64701;43.536;1.478;2023-07-13T01:52:28;99853.38;;;22.31;76.36
76011;BME280;64701;43.536;1.478;2023-07-13T01:54:54;99856.66;;;22.33;76.11
76011;BME280;64701;43.536;1.478;2023-07-13T01:57:19;99849.91;;;22.35;75.76
76011;BME280;64701;43.536;1.478;2023-07-13T01:59:44;99848.56;;;22.33;76.07
76011;BME280;64701;43.536;1.478;2023-07-13T02:02:09;99856.66;;;22.33;76.06
76011;BME280;64701;43.536;1.478;2023-07-13T02:04:36;99859.88;;;22.35;75.71
76011;BME280;64701;43.536;1.478;2023-07-13T02:07:01;99849.38;;;22.33;76.07
76011;BME280;64701;43.536;1.478;2023-07-13T02:09:27;99853.91;;;22.28;76.36
76011;BME280;64701;43.536;1.478;2023-07-13T02:11:52;99847.97;;;22.26;76.26
76011;BME280;64701;43.536;1.478;2023-07-13T02:14:17;99847.13;;;22.20;76.81
76011;BME280;64701;43.536;1.478;2023-07-13T02:16:42;99847.09;;;22.15;76.85
76011;BME280;64701;43.536;1.478;2023-07-13T02:19:08;99858.41;;;22.17;76.13
76011;BME280;64701;43.536;1.478;2023-07-13T02:21:33;99848.16;;;22.14;76.28
76011;BME280;64701;43.536;1.478;2023-07-13T02:23:59;99855.16;;;22.10;76.16
76011;BME280;64701;43.536;1.478;2023-07-13T02:26:25;99865.34;;;22.03;76.36
76011;BME280;64701;43.536;1.478;2023-07-13T02:28:50;99856.72;;;22.06;76.04
76011;BME280;64701;43.536;1.478;2023-07-13T02:31:15;99846.97;;;22.00;76.47
76011;BME280;64701;43.536;1.478;2023-07-13T02:33:41;99856.69;;;22.01;75.83
76011;BME280;64701;43.536;1.478;2023-07-13T02:36:06;99857.06;;;21.88;76.50
76011;BME280;64701;43.536;1.478;2023-07-13T02:38:32;99858.47;;;21.90;76.00
76011;BME280;64701;43.536;1.478;2023-07-13T02:41:01;99857.63;;;21.90;75.80
76011;BME280;64701;43.536;1.478;2023-07-13T02:43:27;99859.28;;;21.91;75.70
76011;BME280;64701;43.536;1.478;2023-07-13T02:45:52;99859.56;;;21.94;75.23
76011;BME280;64701;43.536;1.478;2023-07-13T02:48:17;99859.56;;;21.94;75.25
76011;BME280;64701;43.536;1.478;2023-07-13T02:50:44;99868.72;;;21.93;75.17
76011;BME280;64701;43.536;1.478;2023-07-13T02:53:09;99862.78;;;21.91;74.98
76011;BME280;64701;43.536;1.478;2023-07-13T02:55:34;99864.63;;;21.86;75.15
76011;BME280;64701;43.536;1.478;2023-07-13T02:57:59;99869.44;;;21.84;74.64
76011;BME280;64701;43.536;1.478;2023-07-13T03:00:25;99872.72;;;21.86;74.29
76011;BME280;64701;43.536;1.478;2023-07-13T03:02:50;99876.16;;;21.81;74.37
76011;BME280;64701;43.536;1.478;2023-07-13T03:05:15;99878.59;;;21.83;74.07
76011;BME280;64701;43.536;1.478;2023-07-13T03:07:41;99876.97;;;21.82;73.67
76011;BME280;64701;43.536;1.478;2023-07-13T03:10:07;99865.53;;;21.70;73.39
76011;BME280;64701;43.536;1.478;2023-07-13T03:12:33;99873.59;;;21.65;73.11
76011;BME280;64701;43.536;1.478;2023-07-13T03:14:58;99877.34;;;21.64;73.12
76011;BME280;64701;43.536;1.478;2023-07-13T03:17:23;99876.75;;;21.56;72.92
76011;BME280;64701;43.536;1.478;2023-07-13T03:19:49;99883.22;;;21.55;72.60
76011;BME280;64701;43.536;1.478;2023-07-13T03:22:19;99887.69;;;21.45;71.76
76011;BME280;64701;43.536;1.478;2023-07-13T03:24:44;99891.69;;;21.42;71.15
76011;BME280;64701;43.536;1.478;2023-07-13T03:27:09;99898.13;;;21.41;70.71
76011;BME280;64701;43.536;1.478;2023-07-13T03:29:35;99889.75;;;21.38;69.98
76011;BME280;64701;43.536;1.478;2023-07-13T03:32:00;99902.91;;;21.34;70.00
76011;BME280;64701;43.536;1.478;2023-07-13T03:34:25;99903.91;;;21.28;69.09
76011;BME280;64701;43.536;1.478;2023-07-13T03:36:53;99904.44;;;21.25;69.32
76011;BME280;64701;43.536;1.478;2023-07-13T03:39:18;99903.00;;;21.17;68.87
76011;BME280;64701;43.536;1.478;2023-07-13T03:41:44;99906.84;;;21.05;68.94
76011;BME280;64701;43.536;1.478;2023-07-13T03:44:09;99917.97;;;20.92;69.09
76011;BME280;64701;43.536;1.478;2023-07-13T03:46:34;99923.44;;;20.97;69.25
76011;BME280;64701;43.536;1.478;2023-07-13T03:48:59;99924.25;;;20.97;68.51
76011;BME280;64701;43.536;1.478;2023-07-13T03:51:25;99923.88;;;20.89;69.09
76011;BME280;64701;43.536;1.478;2023-07-13T03:53:50;99923.44;;;20.97;69.43
76011;BME280;64701;43.536;1.478;2023-07-13T03:56:17;99915.91;;;20.99;69.39
76011;BME280;64701;43.536;1.478;2023-07-13T03:58:43;99916.91;;;20.93;68.95
76011;BME280;64701;43.536;1.478;2023-07-13T04:01:10;99916.19;;;20.97;69.55
76011;BME280;64701;43.536;1.478;2023-07-13T04:03:35;99916.72;;;20.99;69.47
76011;BME280;64701;43.536;1.478;2023-07-13T04:06:07;99920.75;;;20.97;69.42
76011;BME280;64701;43.536;1.478;2023-07-13T04:08:33;99924.00;;;20.99;69.81
76011;BME280;64701;43.536;1.478;2023-07-13T04:10:59;99923.19;;;20.98;69.59
76011;BME280;64701;43.536;1.478;2023-07-13T04:13:25;99929.66;;;20.97;69.78
76011;BME280;64701;43.536;1.478;2023-07-13T04:15:51;99932.81;;;20.94;70.08
76011;BME280;64701;43.536;1.478;2023-07-13T04:18:17;99926.03;;;20.92;69.88
76011;BME280;64701;43.536;1.478;2023-07-13T04:20:42;99933.00;;;20.88;69.92
76011;BME280;64701;43.536;1.478;2023-07-13T04:23:07;99932.13;;;20.82;70.08
76011;BME280;64701;43.536;1.478;2023-07-13T04:25:33;99944.69;;;20.76;70.21
76011;BME280;64701;43.536;1.478;2023-07-13T04:27:58;99946.00;;;20.74;70.02
76011;BME280;64701;43.536;1.478;2023-07-13T04:30:23;99954.81;;;20.69;69.97
76011;BME280;64701;43.536;1.478;2023-07-13T04:32:50;99956.97;;;20.67;70.15
76011;BME280;64701;43.536;1.478;2023-07-13T04:35:16;99956.84;;;20.62;69.84
76011;BME280;64701;43.536;1.478;2023-07-13T04:37:42;99955.41;;;20.55;69.45
76011;BME280;64701;43.536;1.478;2023-07-13T04:40:07;99963.97;;;20.52;69.18
76011;BME280;64701;43.536;1.478;2023-07-13T04:42:37;99970.56;;;20.44;69.37
76011;BME280;64701;43.536;1.478;2023-07-13T04:45:02;99967.31;;;20.42;69.41
76011;BME280;64701;43.536;1.478;2023-07-13T04:47:29;99954.94;;;20.41;69.13
76011;BME280;64701;43.536;1.478;2023-07-13T04:49:54;99965.69;;;20.41;69.73
76011;BME280;64701;43.536;1.478;2023-07-13T04:52:20;99956.38;;;20.32;69.41
76011;BME280;64701;43.536;1.478;2023-07-13T04:54:45;99959.06;;;20.32;69.82
76011;BME280;64701;43.536;1.478;2023-07-13T04:57:10;99971.94;;;20.30;69.82
76011;BME280;64701;43.536;1.478;2023-07-13T04:59:35;99975.22;;;20.32;69.62
76011;BME280;64701;43.536;1.478;2023-07-13T05:02:01;99976.38;;;20.36;69.44
76011;BME280;64701;43.536;1.478;2023-07-13T05:04:26;99979.63;;;20.38;69.13
76011;BME280;64701;43.536;1.478;2023-07-13T05:06:52;99980.69;;;20.37;68.76
76011;BME280;64701;43.536;1.478;2023-07-13T05:09:17;99980.94;;;20.35;68.79
76011;BME280;64701;43.536;1.478;2023-07-13T05:11:43;99990.75;;;20.30;69.31
76011;BME280;64701;43.536;1.478;2023-07-13T05:14:08;99993.44;;;20.30;68.82
76011;BME280;64701;43.536;1.478;2023-07-13T05:16:34;99996.00;;;20.36;68.70
76011;BME280;64701;43.536;1.478;2023-07-13T05:19:00;99995.31;;;20.29;68.10
76011;BME280;64701;43.536;1.478;2023-07-13T05:21:25;100001.28;;;20.31;68.17
76011;BME280;64701;43.536;1.478;2023-07-13T05:23:50;99991.22;;;20.27;68.27
76011;BME280;64701;43.536;1.478;2023-07-13T05:26:16;99991.47;;;20.37;68.52
76011;BME280;64701;43.536;1.478;2023-07-13T05:28:41;99993.31;;;20.36;67.91
76011;BME280;64701;43.536;1.478;2023-07-13T05:31:07;99992.59;;;20.41;68.77
76011;BME280;64701;43.536;1.478;2023-07-13T05:33:33;99988.03;;;20.42;68.23
76011;BME280;64701;43.536;1.478;2023-07-13T05:35:58;99989.91;;;20.41;67.71
76011;BME280;64701;43.536;1.478;2023-07-13T05:38:25;99994.47;;;20.41;67.86
76011;BME280;64701;43.536;1.478;2023-07-13T05:40:50;99992.00;;;20.39;67.37
76011;BME280;64701;43.536;1.478;2023-07-13T05:43:16;99992.09;;;20.44;67.04
76011;BME280;64701;43.536;1.478;2023-07-13T05:45:41;99994.31;;;20.47;67.49
76011;BME280;64701;43.536;1.478;2023-07-13T05:48:06;99993.31;;;20.53;67.75
76011;BME280;64701;43.536;1.478;2023-07-13T05:50:32;100005.56;;;20.61;67.50
76011;BME280;64701;43.536;1.478;2023-07-13T05:52:57;100001.31;;;20.65;66.52
76011;BME280;64701;43.536;1.478;2023-07-13T05:55:22;100007.00;;;20.68;66.10
76011;BME280;64701;43.536;1.478;2023-07-13T05:57:48;100004.88;;;20.70;66.34
76011;BME280;64701;43.536;1.478;2023-07-13T06:00:13;100007.09;;;20.73;66.94
76011;BME280;64701;43.536;1.478;2023-07-13T06:02:38;100015.50;;;20.77;66.85
76011;BME280;64701;43.536;1.478;2023-07-13T06:05:04;100009.78;;;20.73;66.81
76011;BME280;64701;43.536;1.478;2023-07-13T06:07:29;100026.25;;;20.77;66.81
76011;BME280;64701;43.536;1.478;2023-07-13T06:09:54;100026.63;;;20.86;67.00
76011;BME280;64701;43.536;1.478;2023-07-13T06:12:20;100023.31;;;20.95;66.25
76011;BME280;64701;43.536;1.478;2023-07-13T06:14:45;100025.25;;;21.00;65.18
76011;BME280;64701;43.536;1.478;2023-07-13T06:17:10;100028.59;;;21.07;65.56
76011;BME280;64701;43.536;1.478;2023-07-13T06:19:35;100038.97;;;21.15;65.62
76011;BME280;64701;43.536;1.478;2023-07-13T06:22:01;100033.38;;;21.22;65.10
76011;BME280;64701;43.536;1.478;2023-07-13T06:24:26;100038.59;;;21.28;64.62
76011;BME280;64701;43.536;1.478;2023-07-13T06:26:51;100051.00;;;21.29;63.95
76011;BME280;64701;43.536;1.478;2023-07-13T06:29:16;100045.97;;;21.33;63.94
76011;BME280;64701;43.536;1.478;2023-07-13T06:31:42;100057.03;;;21.36;65.03
76011;BME280;64701;43.536;1.478;2023-07-13T06:34:07;100050.53;;;21.32;63.71
76011;BME280;64701;43.536;1.478;2023-07-13T06:36:32;100055.22;;;21.42;64.19
76011;BME280;64701;43.536;1.478;2023-07-13T06:38:58;100059.31;;;21.44;63.33
76011;BME280;64701;43.536;1.478;2023-07-13T06:41:23;100057.16;;;21.46;63.56
76011;BME280;64701;43.536;1.478;2023-07-13T06:43:51;100061.72;;;21.46;64.16
76011;BME280;64701;43.536;1.478;2023-07-13T06:46:16;100048.06;;;21.52;63.84
76011;BME280;64701;43.536;1.478;2023-07-13T06:48:41;100054.16;;;21.43;63.41
76011;BME280;64701;43.536;1.478;2023-07-13T06:51:07;100060.78;;;21.57;64.53
76011;BME280;64701;43.536;1.478;2023-07-13T06:53:33;100058.31;;;21.50;63.40
76011;BME280;64701;43.536;1.478;2023-07-13T06:55:58;100069.56;;;21.47;62.95
76011;BME280;64701;43.536;1.478;2023-07-13T06:58:23;100068.28;;;21.50;62.89
76011;BME280;64701;43.536;1.478;2023-07-13T07:00:50;100079.47;;;21.42;63.35
76011;BME280;64701;43.536;1.478;2023-07-13T07:03:16;100080.53;;;21.41;64.19
76011;BME280;64701;43.536;1.478;2023-07-13T07:05:41;100082.03;;;21.32;63.13
76011;BME280;64701;43.536;1.478;2023-07-13T07:08:06;100075.19;;;21.24;61.74
76011;BME280;64701;43.536;1.478;2023-07-13T07:10:32;100080.16;;;21.32;63.05
76011;BME280;64701;43.536;1.478;2023-07-13T07:12:58;100087.38;;;21.48;63.57
76011;BME280;64701;43.536;1.478;2023-07-13T07:15:23;100080.19;;;21.54;63.65
76011;BME280;64701;43.536;1.478;2023-07-13T07:17:48;100083.25;;;21.63;63.83
76011;BME280;64701;43.536;1.478;2023-07-13T07:20:14;100088.31;;;21.59;63.43
76011;BME280;64701;43.536;1.478;2023-07-13T07:22:39;100086.03;;;21.68;63.32
76011;BME280;64701;43.536;1.478;2023-07-13T07:25:04;100092.53;;;21.72;62.96
76011;BME280;64701;43.536;1.478;2023-07-13T07:27:30;100091.84;;;21.81;63.74
76011;BME280;64701;43.536;1.478;2023-07-13T07:29:55;100098.19;;;21.92;63.48
76011;BME280;64701;43.536;1.478;2023-07-13T07:32:22;100095.72;;;21.90;61.85
76011;BME280;64701;43.536;1.478;2023-07-13T07:34:48;100092.59;;;21.77;62.55
76011;BME280;64701;43.536;1.478;2023-07-13T07:37:13;100097.50;;;21.80;63.28
76011;BME280;64701;43.536;1.478;2023-07-13T07:39:39;100094.09;;;21.89;62.54
76011;BME280;64701;43.536;1.478;2023-07-13T07:42:04;100091.91;;;21.86;61.79
76011;BME280;64701;43.536;1.478;2023-07-13T07:44:32;100092.78;;;21.92;62.55
76011;BME280;64701;43.536;1.478;2023-07-13T07:46:59;100094.34;;;21.88;62.12
76011;BME280;64701;43.536;1.478;2023-07-13T07:49:24;100093.34;;;21.94;61.75
76011;BME280;64701;43.536;1.478;2023-07-13T07:51:49;100088.66;;;22.06;62.08
76011;BME280;64701;43.536;1.478;2023-07-13T07:54:15;100087.78;;;22.01;60.36
76011;BME280;64701;43.536;1.478;2023-07-13T07:56:40;100096.88;;;22.16;61.63
76011;BME280;64701;43.536;1.478;2023-07-13T07:59:06;100086.75;;;22.28;61.42
76011;BME280;64701;43.536;1.478;2023-07-13T08:01:31;100086.84;;;22.38;61.30
76011;BME280;64701;43.536;1.478;2023-07-13T08:03:56;100098.34;;;22.56;61.17
76011;BME280;64701;43.536;1.478;2023-07-13T08:06:22;100095.19;;;22.64;61.68
76011;BME280;64701;43.536;1.478;2023-07-13T08:08:48;100089.34;;;22.72;61.48
76011;BME280;64701;43.536;1.478;2023-07-13T08:11:13;100095.59;;;22.77;59.51
76011;BME280;64701;43.536;1.478;2023-07-13T08:13:38;100095.91;;;22.81;59.81
76011;BME280;64701;43.536;1.478;2023-07-13T08:16:04;100090.78;;;22.85;58.61
76011;BME280;64701;43.536;1.478;2023-07-13T08:18:30;100092.22;;;22.92;59.54
76011;BME280;64701;43.536;1.478;2023-07-13T08:20:55;100082.97;;;22.88;58.74
76011;BME280;64701;43.536;1.478;2023-07-13T08:23:22;100088.88;;;22.80;58.15
76011;BME280;64701;43.536;1.478;2023-07-13T08:25:51;100085.56;;;22.73;57.40
76011;BME280;64701;43.536;1.478;2023-07-13T08:28:16;100082.63;;;22.74;56.98
76011;BME280;64701;43.536;1.478;2023-07-13T08:30:41;100087.13;;;22.69;59.45
76011;BME280;64701;43.536;1.478;2023-07-13T08:33:06;100092.84;;;22.72;59.80
76011;BME280;64701;43.536;1.478;2023-07-13T08:35:32;100086.13;;;22.75;57.45
76011;BME280;64701;43.536;1.478;2023-07-13T08:37:57;100085.59;;;22.78;57.61
76011;BME280;64701;43.536;1.478;2023-07-13T08:40:23;100089.25;;;22.67;56.50
76011;BME280;64701;43.536;1.478;2023-07-13T08:42:52;100092.44;;;22.86;57.77
76011;BME280;64701;43.536;1.478;2023-07-13T08:50:48;100102.78;;;22.99;57.54
76011;BME280;64701;43.536;1.478;2023-07-13T08:53:17;100093.06;;;22.98;56.52
76011;BME280;64701;43.536;1.478;2023-07-13T08:55:44;100073.69;;;23.06;56.83
76011;BME280;64701;43.536;1.478;2023-07-13T08:58:11;100076.66;;;23.09;56.72
76011;BME280;64701;43.536;1.478;2023-07-13T09:03:22;100083.69;;;23.10;55.46
76011;BME280;64701;43.536;1.478;2023-07-13T09:05:49;100079.38;;;23.09;54.48
76011;BME280;64701;43.536;1.478;2023-07-13T09:13:35;100077.28;;;23.22;55.08
76011;BME280;64701;43.536;1.478;2023-07-13T09:16:02;100081.63;;;23.23;56.47
76011;BME280;64701;43.536;1.478;2023-07-13T09:18:30;100080.03;;;23.32;55.78
76011;BME280;64701;43.536;1.478;2023-07-13T09:23:30;100086.41;;;23.47;56.35
76011;BME280;64701;43.536;1.478;2023-07-13T09:28:28;100089.13;;;23.52;55.07
76011;BME280;64701;43.536;1.478;2023-07-13T09:33:21;100082.94;;;23.62;55.09
76011;BME280;64701;43.536;1.478;2023-07-13T09:35:48;100083.03;;;23.77;54.05
76011;BME280;64701;43.536;1.478;2023-07-13T09:38:15;100091.16;;;23.87;53.78
76011;BME280;64701;43.536;1.478;2023-07-13T09:40:48;100086.81;;;23.81;53.08
76011;BME280;64701;43.536;1.478;2023-07-13T09:43:17;100086.59;;;23.93;54.05
76011;BME280;64701;43.536;1.478;2023-07-13T09:45:45;100089.50;;;23.81;52.80
76011;BME280;64701;43.536;1.478;2023-07-13T09:48:11;100086.28;;;23.89;54.36
76011;BME280;64701;43.536;1.478;2023-07-13T09:50:37;100084.69;;;23.93;53.53
76011;BME280;64701;43.536;1.478;2023-07-13T09:53:03;100084.22;;;24.12;54.51
76011;BME280;64701;43.536;1.478;2023-07-13T09:55:29;100086.72;;;24.28;53.58
76011;BME280;64701;43.536;1.478;2023-07-13T09:57:55;100073.75;;;24.35;54.19
76011;BME280;64701;43.536;1.478;2023-07-13T10:00:25;100082.16;;;24.64;53.93
76011;BME280;64701;43.536;1.478;2023-07-13T10:02:58;100072.69;;;24.72;51.70
76011;BME280;64701;43.536;1.478;2023-07-13T10:05:24;100076.75;;;25.00;53.25
76011;BME280;64701;43.536;1.478;2023-07-13T10:07:50;100088.13;;;25.12;52.37
76011;BME280;64701;43.536;1.478;2023-07-13T10:10:22;100090.28;;;25.05;49.23
76011;BME280;64701;43.536;1.478;2023-07-13T10:12:48;100090.56;;;25.13;50.37
76011;BME280;64701;43.536;1.478;2023-07-13T10:15:15;100100.84;;;25.11;51.54
76011;BME280;64701;43.536;1.478;2023-07-13T10:17:41;100097.31;;;25.21;51.78
76011;BME280;64701;43.536;1.478;2023-07-13T10:20:09;100097.59;;;25.14;50.87
76011;BME280;64701;43.536;1.478;2023-07-13T10:25:07;100094.06;;;25.19;50.61
76011;BME280;64701;43.536;1.478;2023-07-13T10:27:34;100096.22;;;25.27;50.92
76011;BME280;64701;43.536;1.478;2023-07-13T10:30:09;100086.47;;;25.21;49.53
76011;BME280;64701;43.536;1.478;2023-07-13T10:32:37;100089.19;;;25.26;49.58
76011;BME280;64701;43.536;1.478;2023-07-13T10:35:02;100083.69;;;25.46;51.40
76011;BME280;64701;43.536;1.478;2023-07-13T10:37:31;100083.75;;;25.31;51.41
76011;BME280;64701;43.536;1.478;2023-07-13T10:39:59;100090.78;;;25.42;51.00
76011;BME280;64701;43.536;1.478;2023-07-13T10:42:28;100083.69;;;25.46;49.62
76011;BME280;64701;43.536;1.478;2023-07-13T10:44:54;100089.41;;;25.50;49.48
76011;BME280;64701;43.536;1.478;2023-07-13T10:47:19;100090.19;;;25.55;50.81
76011;BME280;64701;43.536;1.478;2023-07-13T10:49:45;100089.69;;;25.43;50.91
76011;BME280;64701;43.536;1.478;2023-07-13T10:54:56;100090.72;;;25.73;51.03
76011;BME280;64701;43.536;1.478;2023-07-13T10:57:22;100082.50;;;25.88;48.96
76011;BME280;64701;43.536;1.478;2023-07-13T10:59:49;100092.75;;;26.01;49.94
76011;BME280;64701;43.536;1.478;2023-07-13T11:02:34;100090.28;;;26.10;50.34
76011;BME280;64701;43.536;1.478;2023-07-13T11:05:01;100087.25;;;26.11;49.00
76011;BME280;64701;43.536;1.478;2023-07-13T11:07:51;100082.38;;;26.13;49.35
76011;BME280;64701;43.536;1.478;2023-07-13T11:10:51;100081.56;;;26.13;49.00
76011;BME280;64701;43.536;1.478;2023-07-13T11:13:02;100077.44;;;26.20;50.07
76011;BME280;64701;43.536;1.478;2023-07-13T11:15:43;100084.47;;;26.31;50.02
76011;BME280;64701;43.536;1.478;2023-07-13T11:18:19;100073.63;;;26.26;49.76
76011;BME280;64701;43.536;1.478;2023-07-13T11:20:45;100074.16;;;26.28;50.25
76011;BME280;64701;43.536;1.478;2023-07-13T11:25:38;100073.59;;;26.31;50.07
76011;BME280;64701;43.536;1.478;2023-07-13T11:28:06;100067.41;;;26.21;49.24
76011;BME280;64701;43.536;1.478;2023-07-13T11:30:35;100067.66;;;26.19;49.66
76011;BME280;64701;43.536;1.478;2023-07-13T11:35:36;100071.47;;;26.23;49.51
76011;BME280;64701;43.536;1.478;2023-07-13T11:38:03;100066.84;;;26.24;49.77
76011;BME280;64701;43.536;1.478;2023-07-13T11:40:37;100065.91;;;26.44;49.56
76011;BME280;64701;43.536;1.478;2023-07-13T11:43:02;100063.16;;;26.49;47.91
76011;BME280;64701;43.536;1.478;2023-07-13T11:45:32;100047.66;;;26.49;48.46
76011;BME280;64701;43.536;1.478;2023-07-13T11:47:57;100061.22;;;26.54;49.72
76011;BME280;64701;43.536;1.478;2023-07-13T11:50:25;100051.06;;;26.65;49.05
76011;BME280;64701;43.536;1.478;2023-07-13T11:52:51;100041.34;;;26.59;48.16
76011;BME280;64701;43.536;1.478;2023-07-13T11:55:19;100041.97;;;26.46;48.95
76011;BME280;64701;43.536;1.478;2023-07-13T11:57:51;100045.13;;;26.63;48.49
76011;BME280;64701;43.536;1.478;2023-07-13T12:00:21;100042.75;;;26.85;48.04
76011;BME280;64701;43.536;1.478;2023-07-13T12:02:47;100040.00;;;26.90;47.63
76011;BME280;64701;43.536;1.478;2023-07-13T12:05:15;100028.75;;;27.02;48.07
76011;BME280;64701;43.536;1.478;2023-07-13T12:07:40;100029.09;;;27.19;49.23
76011;BME280;64701;43.536;1.478;2023-07-13T12:12:37;100028.69;;;27.31;47.60
76011;BME280;64701;43.536;1.478;2023-07-13T12:15:06;100026.66;;;27.41;47.72
76011;BME280;64701;43.536;1.478;2023-07-13T12:17:31;100034.53;;;27.43;46.03
76011;BME280;64701;43.536;1.478;2023-07-13T12:19:59;100032.56;;;27.25;46.51
76011;BME280;64701;43.536;1.478;2023-07-13T12:22:25;100022.03;;;27.42;46.11
76011;BME280;64701;43.536;1.478;2023-07-13T12:24:50;100017.19;;;27.39;45.02
76011;BME280;64701;43.536;1.478;2023-07-13T12:27:20;100019.84;;;27.20;46.14
76011;BME280;64701;43.536;1.478;2023-07-13T12:30:04;100017.94;;;27.20;47.63
76011;BME280;64701;43.536;1.478;2023-07-13T12:32:30;100019.84;;;27.44;47.51
76011;BME280;64701;43.536;1.478;2023-07-13T12:35:17;100017.41;;;27.66;47.29
76011;BME280;64701;43.536;1.478;2023-07-13T12:37:42;100016.69;;;27.79;46.87
76011;BME280;64701;43.536;1.478;2023-07-13T12:40:14;100010.97;;;27.99;46.07
76011;BME280;64701;43.536;1.478;2023-07-13T12:42:40;100019.06;;;28.05;46.58
76011;BME280;64701;43.536;1.478;2023-07-13T12:47:41;100012.50;;;27.87;44.90
76011;BME280;64701;43.536;1.478;2023-07-13T12:50:20;100013.69;;;27.81;46.01
76011;BME280;64701;43.536;1.478;2023-07-13T12:52:54;100012.19;;;27.51;47.31
76011;BME280;64701;43.536;1.478;2023-07-13T12:55:21;100022.47;;;27.54;45.43
76011;BME280;64701;43.536;1.478;2023-07-13T12:57:53;100014.19;;;27.64;45.71
76011;BME280;64701;43.536;1.478;2023-07-13T13:02:45;100016.22;;;27.53;44.63
76011;BME280;64701;43.536;1.478;2023-07-13T13:05:15;100015.75;;;27.70;46.13
76011;BME280;64701;43.536;1.478;2023-07-13T13:07:40;100002.41;;;27.69;47.27
76011;BME280;64701;43.536;1.478;2023-07-13T13:10:12;100000.44;;;27.74;46.67
76011;BME280;64701;43.536;1.478;2023-07-13T13:12:38;100006.16;;;27.73;45.09
76011;BME280;64701;43.536;1.478;2023-07-13T13:15:04;99994.19;;;27.92;45.18
76011;BME280;64701;43.536;1.478;2023-07-13T13:17:32;99987.22;;;28.05;44.55
76011;BME280;64701;43.536;1.478;2023-07-13T13:19:57;99996.41;;;27.90;45.68
76011;BME280;64701;43.536;1.478;2023-07-13T13:22:22;99996.06;;;28.16;45.31
76011;BME280;64701;43.536;1.478;2023-07-13T13:24:48;99991.06;;;28.36;45.97
76011;BME280;64701;43.536;1.478;2023-07-13T13:27:17;99982.28;;;28.58;44.38
76011;BME280;64701;43.536;1.478;2023-07-13T13:29:43;99983.00;;;28.64;45.19